Etusivu
METAR-TAF:

METAR-TAF

Lentoasemat :

Jällivaara, Ruotsi

Jällivaaran lentoasema

Leveyspiiri: 67-09N, Pituuspiiri: 020-39E, korkeus merenpinnasta: 359 m

Tämänhetkinen sää

Tämä raportti tehtiin 34 minuuttia sitten, kello 04.20 UTC
Tuuli 6 kn pohjoisen/luoteesta, vaihdellen lännen/luoteen ja pohjoisen välillä
Lämpötila 6°C
Kosteus 61%
Ilmanpaine 1012 hPa
Näkyvyys 10 km tai enemmän
ei pilviä alle 1500 m:ssä eikä cumulonimbus-pilviä

METAR: ESNG 230420Z 33006KT 300V360 CAVOK 06/M01 Q1012

Aika: 06:54 (04:54 UTC)

Sääennuste

Tämä raportti tehtiin 2 tuntia ja 24 minuuttia sitten, kello 02.30 UTC
Ennuste voimassa 23. päivästä klo 03 UTC - 23. päivään klo 11 UTC
Tuuli 5 kn pohjoisesta
Näkyvyys 10 km tai enemmän
ei pilviä alle 1500 m:ssä eikä cumulonimbus-pilviä

TAF: ESNG 230230Z 2303/2311 35005KT CAVOK

Säähavainnot ja -ennusteet yli 4000 lentoasemalta (METAR- ja TAF-raportit).

Käytössä olevat sääasemat on merkitty karttaan keltaisilla ja punaisilla pisteillä.

Aseta hiiri pisteen päälle nähdäksesi sääaseman nimen.

Klikkaa sitten nähdäksesi säähavainnot ja -ennusteet.

Kartan vaihtaminen: klikkaa mustalla rastilla varustettuja vihreitä pisteitä, niin voit zoomata sisään; viivalla varustettua vihreää pistettä, niin voit zoomata ulos tai vihreitä nuolia, niin pääset viereisille kartoille.


METAR-TAF: